ENSO/SRP METAR and TAF weather

Enter ICAO airport designator
Station Type Date Time Source
ENSO METAR 2022/01/28 18:20 UTC NOAA

ENSO 281820Z 18013KT 150V210 7000 RA SCT008 BKN010 05/05 Q1010


Station Type Date Time Source
ENSO Decoded METAR 2022/01/28 18:20 UTC NOAA

Stord / Soerstokken, Norway (ENSO) 59-48N 005-21E
Jan 28, 2022 - 01:20 PM EST / 2022.01.28 1820 UTC
Wind: from the S (180 degrees) at 15 MPH (13 KT) (direction variable):0
Visibility: 4 mile(s):0
Sky conditions: mostly cloudy
Weather: rain
Temperature: 41 F (5 C)
Dew Point: 41 F (5 C)
Relative Humidity: 100%
Pressure (altimeter): 29.83 in. Hg (1010 hPa)
ob: ENSO 281820Z 18013KT 150V210 7000 RA SCT008 BKN010 05/05 Q1010
cycle: 18

Station Type Date Time Source
ENSO TAF UTC NOAA

Error!

Example: see airport list